Azure — ZCEE2 — position and weather

sailwx.info

Track history (hours):
 
Tides and Currents Weather Stations Pressure Air Temp Water Temp Dewpoint Dewpoint Depression Visibility Wind Speed Wind Dir Waves Ship Positions

Azure

Last reported at 2015-May-29 05:33 UTC. Time now 2015-May-29 06:19 UTC.
Position N 50°52' W 001°23'.

Length 289 m; draft 8.6 m.

Type: Ship. MMSI: 310610000.

Date/timePositionNaut miles runAvg speedWind from/ knotsBaromVisibWave heightAir tempDewpointWater temp
2015-May-29 05:33N 50°52' W 001°23'10 9.7
2015-May-29 04:33N 50°46' W 001°10'1413.9
2015-May-29 03:33N 50°38' W 000°53'1918.7
2015-May-29 02:33N 50°34' W 000°24'2222.1
2015-May-29 01:34N 50°34' E 000°11'2323.0
2015-May-29 00:33N 50°42' E 000°45'2222.4
2015-May-28 23:34N 50°53' E 001°15'2120.7
2015-May-28 22:33N 51°08' E 001°38'2019.9
2015-May-28 21:34N 51°25' E 001°54'2120.7
2015-May-28 20:34N 51°40' E 002°17'2121.0
2015-May-28 19:32N 51°58' E 002°36'2722.7
2015-May-28 18:20N 52°25' E 002°38'2823.1
2015-May-28 17:06N 52°54' E 002°38'1322.9
2015-May-28 16:33N 53°07' E 002°40'  
2015-May-24 16:33N 59°12' E 005°03'1717.0
2015-May-24 15:33N 59°05' E 005°33'8 7.7
2015-May-24 14:28N 58°58' E 005°44'0 0.0
2015-May-24 13:31N 58°58' E 005°44'0 0.0
2015-May-24 12:31N 58°58' E 005°44'0 0.0
2015-May-24 11:31N 58°58' E 005°44'0 0.0
2015-May-24 10:31N 58°58' E 005°44'0 0.0
2015-May-24 09:31N 58°58' E 005°44'0 0.0
2015-May-24 08:31N 58°58' E 005°44'0 0.0
2015-May-24 07:31N 58°58' E 005°44'0 0.3
2015-May-24 06:34N 58°59' E 005°43'6 5.7
2015-May-24 05:33N 58°57' E 005°33'1312.7
2015-May-24 04:33N 58°45' E 005°22'1514.5
2015-May-24 03:33N 58°31' E 005°14'1816.6
2015-May-24 02:26N 58°14' E 005°04'32317.8
2015-May-23 08:20N 53°03' E 002°30'1517.9
2015-May-23 07:29N 52°48' E 002°27'1718.6
2015-May-23 06:33N 52°31' E 002°23'2118.7
2015-May-23 05:26N 52°10' E 002°21'1718.7
2015-May-23 04:30N 51°53' E 002°15'1818.7
2015-May-23 03:33N 51°38' E 002°01'1616.4
2015-May-23 02:33N 51°22' E 002°07'1717.3
2015-May-23 01:34N 51°09' E 001°48'1918.7
2015-May-23 00:33N 50°56' E 001°27'1917.7
2015-May-22 23:29N 50°38' E 001°17'2118.2
2015-May-22 22:19N 50°26' E 000°49'1619.3
2015-May-22 21:29N 50°22' E 000°25'3618.6
2015-May-22 19:33N 50°31' W 000°30'1717.1
2015-May-22 18:33N 50°38' W 000°54'1212.4
2015-May-22 17:33N 50°46' W 001°10'1110.5
2015-May-22 16:34N 50°52' W 001°23'3 2.8
2015-May-22 15:32N 50°54' W 001°26'0 0.0
2015-May-22 14:29N 50°54' W 001°26'0 0.0
2015-May-22 13:26N 50°54' W 001°26'0 0.0
2015-May-22 12:29N 50°54' W 001°26'0 0.0
2015-May-22 11:32N 50°54' W 001°26'0 0.0
2015-May-22 10:29N 50°54' W 001°26'0 0.0
2015-May-22 09:32N 50°54' W 001°26'0 0.0
2015-May-22 08:32N 50°54' W 001°26'0 0.0
2015-May-22 07:32N 50°54' W 001°26'0 0.0
2015-May-22 06:32N 50°54' W 001°26'0 0.0
2015-May-22 05:32N 50°54' W 001°26'1 1.4
2015-May-22 04:33N 50°53' W 001°24'8 8.2
2015-May-22 03:34N 50°47' W 001°17'1414.0
2015-May-22 02:33N 50°39' W 000°58'1212.4
2015-May-22 01:33N 50°29' W 001°10'1716.7
2015-May-22 00:33N 50°22' W 001°34'17521.0
2015-May-21 16:13N 48°39' W 005°12'59718.8
2015-May-20 08:33N 39°17' W 009°50'1717.2
2015-May-20 07:33N 38°60' W 009°51'1717.1
2015-May-20 06:33N 38°43' W 009°51'1717.3
2015-May-20 05:33N 38°26' W 009°46'1716.9
2015-May-20 04:33N 38°10' W 009°40'1717.0
2015-May-20 03:33N 37°53' W 009°36'1717.1
2015-May-20 02:33N 37°37' W 009°30'5116.7
2015-May-19 23:32N 36°47' W 009°14'1717.0
2015-May-19 22:33N 36°42' W 008°55'1918.9
2015-May-19 21:33N 36°35' W 008°33'1919.1
2015-May-19 20:33N 36°30' W 008°10'13319.0
2015-May-19 13:33N 35°59' W 005°29'1211.6
2015-May-19 12:33N 36°09' W 005°22'0 0.1
2015-May-19 05:34N 36°09' W 005°22'  
Track history (hours):
 
Tides and Currents Weather Stations Pressure Air Temp Water Temp Dewpoint Dewpoint Depression Visibility Wind Speed Wind Dir Waves Ship Positions

Azure

Last reported at 2015-May-29 05:33 UTC. Time now 2015-May-29 06:19 UTC.
Position N 50°52' W 001°23'.

Length 289 m; draft 8.6 m.

Type: Ship. MMSI: 310610000.

Date/timePositionNaut miles runAvg speedWind from/ knotsBaromVisibWave heightAir tempDewpointWater temp
2015-May-29 05:33N 50°52' W 001°23'10 9.7
2015-May-29 04:33N 50°46' W 001°10'1413.9
2015-May-29 03:33N 50°38' W 000°53'1918.7
2015-May-29 02:33N 50°34' W 000°24'2222.1
2015-May-29 01:34N 50°34' E 000°11'2323.0
2015-May-29 00:33N 50°42' E 000°45'2222.4
2015-May-28 23:34N 50°53' E 001°15'2120.7
2015-May-28 22:33N 51°08' E 001°38'2019.9
2015-May-28 21:34N 51°25' E 001°54'2120.7
2015-May-28 20:34N 51°40' E 002°17'2121.0
2015-May-28 19:32N 51°58' E 002°36'2722.7
2015-May-28 18:20N 52°25' E 002°38'2823.1
2015-May-28 17:06N 52°54' E 002°38'1322.9
2015-May-28 16:33N 53°07' E 002°40'  
2015-May-24 16:33N 59°12' E 005°03'1717.0
2015-May-24 15:33N 59°05' E 005°33'8 7.7
2015-May-24 14:28N 58°58' E 005°44'0 0.0
2015-May-24 13:31N 58°58' E 005°44'0 0.0
2015-May-24 12:31N 58°58' E 005°44'0 0.0
2015-May-24 11:31N 58°58' E 005°44'0 0.0
2015-May-24 10:31N 58°58' E 005°44'0 0.0
2015-May-24 09:31N 58°58' E 005°44'0 0.0
2015-May-24 08:31N 58°58' E 005°44'0 0.0
2015-May-24 07:31N 58°58' E 005°44'0 0.3
2015-May-24 06:34N 58°59' E 005°43'6 5.7
2015-May-24 05:33N 58°57' E 005°33'1312.7
2015-May-24 04:33N 58°45' E 005°22'1514.5
2015-May-24 03:33N 58°31' E 005°14'1816.6
2015-May-24 02:26N 58°14' E 005°04'32317.8
2015-May-23 08:20N 53°03' E 002°30'1517.9
2015-May-23 07:29N 52°48' E 002°27'1718.6
2015-May-23 06:33N 52°31' E 002°23'2118.7
2015-May-23 05:26N 52°10' E 002°21'1718.7
2015-May-23 04:30N 51°53' E 002°15'1818.7
2015-May-23 03:33N 51°38' E 002°01'1616.4
2015-May-23 02:33N 51°22' E 002°07'1717.3
2015-May-23 01:34N 51°09' E 001°48'1918.7
2015-May-23 00:33N 50°56' E 001°27'1917.7
2015-May-22 23:29N 50°38' E 001°17'2118.2
2015-May-22 22:19N 50°26' E 000°49'1619.3
2015-May-22 21:29N 50°22' E 000°25'3618.6
2015-May-22 19:33N 50°31' W 000°30'1717.1
2015-May-22 18:33N 50°38' W 000°54'1212.4
2015-May-22 17:33N 50°46' W 001°10'1110.5
2015-May-22 16:34N 50°52' W 001°23'3 2.8
2015-May-22 15:32N 50°54' W 001°26'0 0.0
2015-May-22 14:29N 50°54' W 001°26'0 0.0
2015-May-22 13:26N 50°54' W 001°26'0 0.0
2015-May-22 12:29N 50°54' W 001°26'0 0.0
2015-May-22 11:32N 50°54' W 001°26'0 0.0
2015-May-22 10:29N 50°54' W 001°26'0 0.0
2015-May-22 09:32N 50°54' W 001°26'0 0.0
2015-May-22 08:32N 50°54' W 001°26'0 0.0
2015-May-22 07:32N 50°54' W 001°26'0 0.0
2015-May-22 06:32N 50°54' W 001°26'0 0.0
2015-May-22 05:32N 50°54' W 001°26'1 1.4
2015-May-22 04:33N 50°53' W 001°24'8 8.2
2015-May-22 03:34N 50°47' W 001°17'1414.0
2015-May-22 02:33N 50°39' W 000°58'1212.4
2015-May-22 01:33N 50°29' W 001°10'1716.7
2015-May-22 00:33N 50°22' W 001°34'17521.0
2015-May-21 16:13N 48°39' W 005°12'59718.8
2015-May-20 08:33N 39°17' W 009°50'1717.2
2015-May-20 07:33N 38°60' W 009°51'1717.1
2015-May-20 06:33N 38°43' W 009°51'1717.3
2015-May-20 05:33N 38°26' W 009°46'1716.9
2015-May-20 04:33N 38°10' W 009°40'1717.0
2015-May-20 03:33N 37°53' W 009°36'1717.1
2015-May-20 02:33N 37°37' W 009°30'5116.7
2015-May-19 23:32N 36°47' W 009°14'1717.0
2015-May-19 22:33N 36°42' W 008°55'1918.9
2015-May-19 21:33N 36°35' W 008°33'1919.1
2015-May-19 20:33N 36°30' W 008°10'13319.0
2015-May-19 13:33N 35°59' W 005°29'1211.6
2015-May-19 12:33N 36°09' W 005°22'0 0.1
2015-May-19 05:34N 36°09' W 005°22'  

Dump ship's entire track history